createdAt,value
2023-05-15T00:00:51.887Z,87.02
2023-05-15T00:04:47.740Z,87.12
2023-05-15T00:05:48.623Z,86.92
2023-05-15T00:06:49.570Z,87.02
2023-05-15T00:07:50.446Z,87.23
2023-05-15T00:08:51.355Z,87.32
2023-05-15T00:09:52.351Z,87.53
2023-05-15T00:11:00.717Z,87.63
2023-05-15T00:11:55.016Z,87.53
2023-05-15T00:12:54.888Z,87.53
2023-05-15T00:13:55.762Z,87.43
2023-05-15T00:14:56.645Z,87.32
2023-05-15T00:15:57.755Z,87.12
2023-05-15T00:16:58.140Z,86.92
2023-05-15T00:17:59.080Z,87.32
2023-05-15T00:19:00.092Z,87.57
2023-05-15T00:23:12.009Z,86.94
2023-05-15T00:24:12.888Z,89.12
2023-05-15T00:25:13.845Z,89.94
2023-05-15T00:26:14.708Z,90.45
2023-05-15T00:27:15.603Z,90.35
2023-05-15T00:28:16.498Z,90.04
2023-05-15T00:29:17.553Z,90.35
2023-05-15T00:30:18.171Z,90.35
2023-05-15T00:31:18.604Z,90.55
2023-05-15T00:32:19.498Z,90.96
2023-05-15T00:33:20.377Z,90.14
2023-05-15T00:34:21.367Z,90.45
2023-05-15T00:35:22.371Z,89.94
2023-05-15T00:36:22.794Z,90.10
2023-05-15T00:37:23.699Z,89.79
2023-05-15T00:38:24.626Z,89.90
2023-05-15T00:39:25.567Z,89.49
2023-05-15T00:40:26.444Z,89.79
2023-05-15T00:41:27.332Z,89.84
2023-05-15T00:42:28.236Z,89.63
2023-05-15T00:43:29.148Z,89.23
2023-05-15T00:44:30.038Z,89.02
2023-05-15T00:45:30.930Z,89.12
2023-05-15T00:46:31.934Z,89.23
2023-05-15T00:47:34.202Z,89.02
2023-05-15T00:48:33.105Z,89.53
2023-05-15T00:49:33.987Z,90.49
2023-05-15T00:50:34.871Z,90.90
2023-05-15T00:51:35.759Z,90.96
2023-05-15T00:52:36.700Z,90.96
2023-05-15T00:53:37.596Z,90.66
2023-05-15T00:54:38.536Z,90.55
2023-05-15T00:55:39.448Z,90.14
2023-05-15T00:56:40.314Z,88.92
2023-05-15T00:57:41.239Z,88.92
2023-05-15T00:58:42.125Z,88.61
2023-05-15T00:59:42.994Z,89.02
2023-05-15T01:00:43.960Z,89.94
2023-05-15T01:01:44.883Z,90.14
2023-05-15T01:02:45.903Z,90.04
2023-05-15T01:03:46.348Z,89.53
2023-05-15T01:04:47.273Z,89.43
2023-05-15T01:05:48.156Z,89.43
2023-05-15T01:06:49.058Z,89.12
2023-05-15T01:07:49.957Z,88.92
2023-05-15T01:08:50.847Z,87.90
2023-05-15T01:09:51.738Z,88.17
2023-05-15T01:10:52.667Z,88.20
2023-05-15T01:11:53.598Z,88.51
2023-05-15T01:12:54.492Z,88.71
2023-05-15T01:13:55.414Z,88.82
2023-05-15T01:14:56.270Z,86.36
2023-05-15T01:15:57.186Z,86.51
2023-05-15T01:16:58.057Z,86.71
2023-05-15T01:17:58.971Z,88.14
2023-05-15T01:18:59.954Z,87.67
2023-05-15T01:20:00.911Z,89.00
2023-05-15T01:21:01.865Z,90.02
2023-05-15T01:22:02.728Z,91.05
2023-05-15T01:23:03.614Z,91.05
2023-05-15T01:24:04.512Z,91.05
2023-05-15T01:25:05.404Z,91.15
2023-05-15T01:26:06.287Z,91.05
2023-05-15T01:27:07.173Z,91.15
2023-05-15T01:28:08.073Z,90.94
2023-05-15T01:29:08.946Z,90.94
2023-05-15T01:30:09.868Z,91.05
2023-05-15T01:31:10.764Z,90.94
2023-05-15T01:32:11.680Z,90.64
2023-05-15T01:33:12.576Z,90.74
2023-05-15T01:34:13.463Z,88.29
2023-05-15T01:35:14.381Z,87.67
2023-05-15T01:36:15.267Z,87.98
2023-05-15T01:37:16.155Z,88.29
2023-05-15T01:38:17.040Z,88.79
2023-05-15T01:39:17.960Z,89.41
2023-05-15T01:40:18.848Z,89.20
2023-05-15T01:41:19.722Z,89.61
2023-05-15T01:42:20.607Z,89.11
2023-05-15T01:43:21.537Z,87.67
2023-05-15T01:44:22.441Z,88.08
2023-05-15T01:45:23.532Z,87.92
2023-05-15T01:46:24.044Z,89.04
2023-05-15T01:47:24.997Z,90.58
2023-05-15T01:48:25.877Z,90.58
2023-05-15T01:49:26.780Z,90.06
2023-05-15T01:50:27.668Z,90.06
2023-05-15T01:51:28.568Z,90.47
2023-05-15T01:52:29.469Z,90.47
2023-05-15T01:53:30.360Z,90.78
2023-05-15T01:54:31.254Z,90.99
2023-05-15T01:55:32.154Z,90.47
2023-05-15T01:56:33.033Z,90.53
2023-05-15T01:57:33.948Z,90.64
2023-05-15T01:58:34.897Z,90.64
2023-05-15T01:59:35.740Z,90.53
2023-05-15T02:00:36.625Z,90.43
2023-05-15T02:01:37.533Z,90.43
2023-05-15T02:02:38.494Z,90.12
2023-05-15T02:03:39.482Z,89.31
2023-05-15T02:04:39.900Z,89.20
2023-05-15T02:05:40.794Z,89.25
2023-05-15T02:06:41.696Z,90.37
2023-05-15T02:07:42.624Z,90.27
2023-05-15T02:08:43.497Z,88.94
2023-05-15T02:09:44.378Z,87.82
2023-05-15T02:10:45.269Z,88.12
2023-05-15T02:11:46.180Z,88.94
2023-05-15T02:12:47.079Z,89.76
2023-05-15T02:13:47.983Z,90.37
2023-05-15T02:14:48.882Z,90.78
2023-05-15T02:15:49.783Z,91.19
2023-05-15T02:16:50.715Z,91.09
2023-05-15T02:17:51.624Z,91.19
2023-05-15T02:18:52.586Z,90.84
2023-05-15T02:19:53.151Z,90.84
2023-05-15T02:20:54.175Z,90.33
2023-05-15T02:21:54.602Z,90.33
2023-05-15T02:22:55.519Z,90.02
2023-05-15T02:23:56.406Z,89.00
2023-05-15T02:24:57.304Z,88.94
2023-05-15T02:25:58.195Z,89.45
2023-05-15T02:26:59.084Z,89.45
2023-05-15T02:27:59.988Z,89.50
2023-05-15T02:29:00.877Z,87.85
2023-05-15T02:30:01.785Z,87.14
2023-05-15T02:31:02.697Z,87.04
2023-05-15T02:32:03.659Z,88.68
2023-05-15T02:33:04.186Z,89.74
2023-05-15T02:34:05.065Z,89.64
2023-05-15T02:35:05.976Z,90.77
2023-05-15T02:36:06.875Z,90.66
2023-05-15T02:37:07.761Z,90.86
2023-05-15T02:38:08.660Z,91.07
2023-05-15T02:39:09.559Z,91.58
2023-05-15T02:40:10.481Z,92.50
2023-05-15T02:41:11.368Z,92.60
2023-05-15T02:42:12.250Z,92.60
2023-05-15T02:43:13.155Z,92.36
2023-05-15T02:44:14.098Z,91.95
2023-05-15T02:45:14.988Z,91.64
2023-05-15T02:46:16.004Z,91.23
2023-05-15T02:47:16.379Z,90.82
2023-05-15T02:48:17.259Z,90.82
2023-05-15T02:49:18.175Z,90.82
2023-05-15T02:50:19.066Z,91.33
2023-05-15T02:51:19.956Z,92.40
2023-05-15T02:52:20.837Z,92.71
2023-05-15T02:53:21.775Z,92.71
2023-05-15T02:54:22.670Z,93.01
2023-05-15T02:55:23.956Z,92.91
2023-05-15T02:56:24.469Z,92.81
2023-05-15T02:57:25.344Z,92.60
2023-05-15T02:58:26.261Z,92.19
2023-05-15T02:59:27.195Z,91.89
2023-05-15T03:00:28.079Z,91.07
2023-05-15T03:01:29.018Z,90.66
2023-05-15T03:02:29.985Z,90.05
2023-05-15T03:03:30.471Z,89.74
2023-05-15T03:04:31.404Z,89.64
2023-05-15T03:05:32.278Z,90.77
2023-05-15T03:06:33.170Z,91.42
2023-05-15T03:07:34.076Z,91.83
2023-05-15T03:08:34.997Z,91.93
2023-05-15T03:09:35.900Z,91.01
2023-05-15T03:10:36.792Z,90.91
2023-05-15T03:11:37.725Z,90.60
2023-05-15T03:12:38.611Z,90.70
2023-05-15T03:13:39.523Z,90.86
2023-05-15T03:14:40.457Z,90.97
2023-05-15T03:15:41.297Z,89.68
2023-05-15T03:16:42.302Z,88.14
2023-05-15T03:17:43.262Z,89.06
2023-05-15T03:18:43.812Z,89.89
2023-05-15T03:19:44.714Z,90.15
2023-05-15T03:20:45.603Z,90.45
2023-05-15T03:21:46.503Z,90.45
2023-05-15T03:22:47.419Z,90.66
2023-05-15T03:23:48.321Z,90.56
2023-05-15T03:24:49.206Z,89.94
2023-05-15T03:25:50.105Z,90.50
2023-05-15T03:26:51.009Z,90.39
2023-05-15T03:27:51.935Z,90.70
2023-05-15T03:28:52.813Z,90.81
2023-05-15T03:29:53.726Z,90.70
2023-05-15T03:30:54.609Z,90.50
2023-05-15T03:31:55.653Z,90.60
2023-05-15T03:32:56.186Z,90.30
2023-05-15T03:33:57.031Z,90.60
2023-05-15T03:34:57.945Z,91.11
2023-05-15T03:35:58.876Z,91.36
2023-05-15T03:36:59.770Z,91.56
2023-05-15T03:38:00.659Z,92.22
2023-05-15T03:39:01.570Z,92.43
2023-05-15T03:40:02.464Z,92.94
2023-05-15T03:41:03.372Z,93.55
2023-05-15T03:42:04.317Z,93.80
2023-05-15T03:43:05.177Z,93.90
2023-05-15T03:44:06.062Z,93.39
2023-05-15T03:45:07.009Z,93.39
2023-05-15T03:46:07.957Z,92.57
2023-05-15T03:47:08.837Z,92.36
2023-05-15T03:48:09.826Z,92.68
2023-05-15T03:49:10.524Z,93.29
2023-05-15T03:50:11.468Z,93.70
2023-05-15T03:51:12.357Z,94.11
2023-05-15T03:52:13.268Z,93.80
2023-05-15T03:53:14.140Z,93.80
2023-05-15T03:54:15.034Z,93.80
2023-05-15T03:55:15.960Z,93.66
2023-05-15T03:56:16.858Z,94.07
2023-05-15T03:57:17.753Z,94.58
2023-05-15T03:58:18.677Z,95.50
2023-05-15T03:59:19.579Z,95.29
2023-05-15T04:00:20.521Z,95.09
2023-05-15T04:01:21.395Z,94.78
2023-05-15T04:02:22.358Z,94.64
2023-05-15T04:03:23.327Z,93.92
2023-05-15T04:04:24.314Z,93.62
2023-05-15T04:05:25.522Z,93.71
2023-05-15T04:06:26.123Z,94.64
2023-05-15T04:07:27.029Z,95.46
2023-05-15T04:08:27.934Z,95.56
2023-05-15T04:09:28.859Z,95.97
2023-05-15T04:10:29.761Z,95.62
2023-05-15T04:11:30.712Z,95.51
2023-05-15T04:12:31.614Z,95.00
2023-05-15T04:13:32.529Z,94.34
2023-05-15T04:14:33.425Z,94.24
2023-05-15T04:15:34.332Z,94.45
2023-05-15T04:16:35.258Z,94.75
2023-05-15T04:17:36.205Z,94.85
2023-05-15T04:18:37.141Z,95.06
2023-05-15T04:19:37.999Z,95.37
2023-05-15T04:20:38.890Z,95.47
2023-05-15T04:21:39.793Z,95.57
2023-05-15T04:22:40.694Z,95.17
2023-05-15T04:23:41.696Z,94.85
2023-05-15T04:24:42.149Z,94.65
2023-05-15T04:25:43.081Z,94.85
2023-05-15T04:26:44.019Z,95.26
2023-05-15T04:27:44.900Z,95.26
2023-05-15T04:28:56.263Z,95.26
2023-05-15T04:29:47.562Z,95.26
2023-05-15T04:30:47.477Z,95.22
2023-05-15T04:31:48.404Z,95.02
2023-05-15T04:32:49.356Z,94.81
2023-05-15T04:33:51.333Z,95.02
2023-05-15T04:34:50.802Z,94.87
2023-05-15T04:35:51.748Z,94.77
2023-05-15T04:36:52.239Z,94.97
2023-05-15T04:37:53.141Z,95.18
2023-05-15T04:38:54.023Z,94.93
2023-05-15T04:39:54.932Z,94.93
2023-05-15T04:40:55.843Z,95.39
2023-05-15T04:41:56.796Z,95.39
2023-05-15T04:42:57.649Z,95.19
2023-05-15T04:43:58.550Z,95.50
2023-05-15T04:44:59.438Z,95.29
2023-05-15T04:46:00.409Z,95.45
2023-05-15T04:47:01.268Z,95.04
2023-05-15T04:48:02.156Z,94.53
2023-05-15T04:49:03.049Z,94.49
2023-05-15T04:50:03.944Z,94.38
2023-05-15T04:51:04.925Z,94.49
2023-05-15T04:52:05.775Z,94.34
2023-05-15T04:53:06.657Z,94.65
2023-05-15T04:54:07.555Z,94.24
2023-05-15T04:55:08.465Z,94.20
2023-05-15T04:56:09.368Z,94.60
2023-05-15T04:57:10.263Z,94.30
2023-05-15T04:58:11.138Z,94.50
2023-05-15T04:59:12.021Z,94.87
2023-05-15T05:00:12.944Z,94.46
2023-05-15T05:01:13.889Z,94.46
2023-05-15T05:02:14.767Z,94.46
2023-05-15T05:03:15.714Z,94.56
2023-05-15T05:04:16.830Z,94.05
2023-05-15T05:05:17.244Z,94.31
2023-05-15T05:06:18.147Z,94.11
2023-05-15T05:07:19.103Z,94.21
2023-05-15T05:08:19.972Z,93.50
2023-05-15T05:09:20.890Z,93.29
2023-05-15T05:10:21.809Z,93.29
2023-05-15T05:11:22.686Z,93.09
2023-05-15T05:12:24.002Z,93.40
2023-05-15T05:13:24.408Z,93.19
2023-05-15T05:14:25.435Z,93.19
2023-05-15T05:15:26.221Z,93.19
2023-05-15T05:16:26.851Z,93.60
2023-05-15T05:17:27.261Z,93.29
2023-05-15T05:18:28.157Z,93.70
2023-05-15T05:19:29.090Z,93.70
2023-05-15T05:20:29.967Z,93.60
2023-05-15T05:21:30.864Z,93.90
2023-05-15T05:22:31.751Z,93.60
2023-05-15T05:23:32.755Z,93.70
2023-05-15T05:24:33.217Z,94.01
2023-05-15T05:25:34.092Z,94.27
2023-05-15T05:26:34.985Z,94.27
2023-05-15T05:27:35.861Z,93.76
2023-05-15T05:28:36.767Z,93.76
2023-05-15T05:29:38.203Z,93.55
2023-05-15T05:30:38.589Z,93.15
2023-05-15T05:31:39.513Z,92.90
2023-05-15T05:32:40.469Z,92.60
2023-05-15T05:33:41.365Z,92.70
2023-05-15T05:34:42.258Z,92.60
2023-05-15T05:35:43.157Z,92.74
2023-05-15T05:36:44.022Z,93.05
2023-05-15T05:37:44.934Z,93.45
2023-05-15T05:38:45.852Z,93.35
2023-05-15T05:39:46.771Z,93.55
2023-05-15T05:40:47.647Z,93.55
2023-05-15T05:41:48.533Z,93.35
2023-05-15T05:42:49.442Z,93.05
2023-05-15T05:43:50.350Z,93.50
2023-05-15T05:44:51.208Z,94.01
2023-05-15T05:45:52.093Z,94.31
2023-05-15T05:46:53.223Z,94.52
2023-05-15T05:47:53.670Z,94.42
2023-05-15T05:48:54.575Z,94.42
2023-05-15T05:49:55.447Z,94.52
2023-05-15T05:50:56.344Z,94.62
2023-05-15T05:51:57.266Z,95.74
2023-05-15T05:52:58.152Z,95.13
2023-05-15T05:53:59.055Z,95.33
2023-05-15T05:55:00.134Z,94.82
2023-05-15T05:56:00.586Z,95.13
2023-05-15T05:57:01.606Z,94.72
2023-05-15T05:58:03.333Z,94.78
2023-05-15T05:59:02.636Z,94.88
2023-05-15T06:00:03.509Z,94.02
2023-05-15T06:01:04.441Z,93.92
2023-05-15T06:02:05.535Z,93.51
2023-05-15T06:03:06.025Z,93.31
2023-05-15T06:04:06.619Z,93.41
2023-05-15T06:05:07.045Z,93.31
2023-05-15T06:06:07.970Z,93.82
2023-05-15T06:07:08.871Z,93.62
2023-05-15T06:08:09.783Z,93.41
2023-05-15T06:09:10.673Z,93.31
2023-05-15T06:10:11.579Z,93.31
2023-05-15T06:11:12.541Z,92.55
2023-05-15T06:12:13.422Z,91.88
2023-05-15T06:13:14.298Z,92.14
2023-05-15T06:14:15.198Z,91.68
2023-05-15T06:15:16.110Z,92.80
2023-05-15T06:16:17.127Z,92.70
2023-05-15T06:17:17.617Z,92.90
2023-05-15T06:18:18.504Z,93.10
2023-05-15T06:19:19.459Z,92.90
2023-05-15T06:20:19.937Z,93.62
2023-05-15T06:21:20.843Z,93.71
2023-05-15T06:22:21.717Z,92.90
2023-05-15T06:23:24.391Z,93.21
2023-05-15T06:24:23.393Z,93.71
2023-05-15T06:25:24.310Z,92.90
2023-05-15T06:26:25.223Z,93.71
2023-05-15T06:27:26.108Z,93.01
2023-05-15T06:28:26.998Z,92.90
2023-05-15T06:29:27.925Z,92.90
2023-05-15T06:30:28.850Z,92.80
2023-05-15T06:31:29.762Z,92.40
2023-05-15T06:32:32.017Z,92.09
2023-05-15T06:33:31.139Z,93.51
2023-05-15T06:34:32.055Z,92.70
2023-05-15T06:35:32.984Z,92.70
2023-05-15T06:36:33.955Z,92.70
2023-05-15T06:37:35.771Z,92.23
2023-05-15T06:38:35.788Z,93.05
2023-05-15T06:39:36.255Z,93.35
2023-05-15T06:40:37.157Z,93.45
2023-05-15T06:41:38.056Z,92.94
2023-05-15T06:42:38.943Z,92.23
2023-05-15T06:43:40.264Z,92.64
2023-05-15T06:44:40.704Z,93.01
2023-05-15T06:45:41.605Z,92.60
2023-05-15T06:46:42.624Z,93.25
2023-05-15T06:47:43.091Z,93.66
2023-05-15T06:48:43.966Z,93.45
2023-05-15T06:49:44.866Z,94.52
2023-05-15T06:50:45.761Z,94.52
2023-05-15T06:51:46.654Z,95.23
2023-05-15T06:52:47.575Z,95.39
2023-05-15T06:53:48.491Z,94.88
2023-05-15T06:54:49.382Z,94.27
2023-05-15T06:55:50.332Z,94.73
2023-05-15T06:56:51.209Z,93.57
2023-05-15T06:57:52.158Z,91.53
2023-05-15T06:58:53.084Z,90.31
2023-05-15T06:59:54.734Z,91.03
2023-05-15T07:00:56.366Z,91.17
2023-05-15T07:01:55.306Z,89.95
2023-05-15T07:02:56.306Z,90.70
2023-05-15T07:03:56.745Z,91.22
2023-05-15T07:04:57.707Z,92.19
2023-05-15T07:05:58.148Z,91.07
2023-05-15T07:06:59.064Z,91.38
2023-05-15T07:08:00.062Z,91.48
2023-05-15T07:09:00.946Z,92.04
2023-05-15T07:10:01.876Z,91.94
2023-05-15T07:11:02.741Z,92.25
2023-05-15T07:12:03.654Z,91.43
2023-05-15T07:13:04.552Z,90.01
2023-05-15T07:14:05.448Z,90.83
2023-05-15T07:15:06.372Z,90.42
2023-05-15T07:16:07.302Z,90.31
2023-05-15T07:17:08.288Z,90.42
2023-05-15T07:18:09.591Z,89.97
2023-05-15T07:19:10.083Z,90.58
2023-05-15T07:20:10.998Z,89.76
2023-05-15T07:21:11.893Z,89.42
2023-05-15T07:22:12.811Z,88.30
2023-05-15T07:23:13.709Z,89.01
2023-05-15T07:24:14.592Z,89.46
2023-05-15T07:25:16.841Z,90.33
2023-05-15T07:26:23.688Z,89.31
2023-05-15T07:27:18.252Z,89.72
2023-05-15T07:28:18.176Z,89.31
2023-05-15T07:29:19.030Z,89.11
2023-05-15T07:30:19.956Z,88.10
2023-05-15T07:31:20.893Z,89.11
2023-05-15T07:32:21.847Z,88.10
2023-05-15T07:33:22.793Z,87.73
2023-05-15T07:34:23.755Z,88.89
2023-05-15T07:35:24.305Z,89.81
2023-05-15T07:36:24.705Z,90.72
2023-05-15T07:37:25.633Z,90.83
2023-05-15T07:38:26.544Z,89.70
2023-05-15T07:39:27.471Z,89.00
2023-05-15T07:40:28.376Z,89.20
2023-05-15T07:41:29.291Z,89.20
2023-05-15T07:42:30.163Z,89.50
2023-05-15T07:43:31.067Z,88.48
2023-05-15T07:44:31.999Z,89.05
2023-05-15T07:45:32.957Z,89.05
2023-05-15T07:46:33.443Z,88.85
2023-05-15T07:47:34.314Z,89.46
2023-05-15T07:48:35.228Z,88.95
2023-05-15T07:49:36.134Z,89.56
2023-05-15T07:50:37.039Z,89.56
2023-05-15T07:51:37.909Z,88.89
2023-05-15T11:49:55.106Z,61.85
2023-05-15T11:50:55.597Z,61.52
2023-05-15T11:51:56.218Z,61.72
2023-05-15T11:52:56.684Z,61.59
2023-05-15T11:53:57.678Z,59.19
2023-05-15T11:54:58.093Z,58.59
2023-05-15T11:55:59.991Z,59.12
2023-05-15T11:56:59.885Z,61.72
2023-05-15T11:58:00.819Z,59.72
2023-05-15T11:59:01.728Z,58.65
2023-05-15T12:00:02.664Z,58.45
2023-05-15T12:01:03.525Z,59.35
2023-05-15T12:02:04.452Z,60.65
2023-05-15T12:03:05.428Z,59.42
2023-05-15T12:04:06.548Z,59.18
2023-05-15T12:05:07.361Z,58.48
2023-05-15T12:06:07.851Z,59.18
2023-05-15T12:07:08.762Z,60.08
2023-05-15T12:08:09.672Z,60.18
2023-05-15T12:09:10.572Z,58.58
2023-05-15T12:10:11.552Z,58.98
2023-05-15T12:11:12.488Z,62.65
2023-05-15T12:12:13.083Z,62.02
2023-05-15T12:13:13.987Z,58.19
2023-05-15T12:14:14.965Z,57.59
2023-05-15T12:15:16.012Z,56.99
2023-05-15T12:16:16.732Z,58.59
2023-05-15T12:17:17.169Z,56.52
2023-05-15T12:18:18.071Z,56.99
2023-05-15T12:19:19.072Z,55.22
2023-05-15T12:20:19.482Z,56.42
2023-05-15T12:21:20.421Z,58.62
2023-05-15T12:22:23.168Z,59.27
2023-05-15T12:23:22.384Z,55.99
2023-05-15T12:24:22.992Z,58.00
2023-05-15T12:25:28.760Z,57.26
2023-05-15T12:26:24.182Z,56.16
2023-05-15T12:27:25.083Z,56.46
2023-05-15T12:28:26.160Z,58.54
2023-05-15T12:29:26.688Z,55.57
2023-05-15T12:30:27.626Z,57.44
2023-05-15T12:31:27.981Z,57.41
2023-05-15T12:32:28.544Z,55.39
2023-05-15T12:33:29.016Z,55.99
2023-05-15T12:34:30.557Z,56.96
2023-05-15T12:35:30.101Z,55.06
2023-05-15T12:36:30.953Z,54.29
2023-05-15T12:37:31.860Z,55.19
2023-05-15T12:38:32.770Z,53.81
2023-05-15T12:39:33.696Z,54.17
2023-05-15T12:40:34.681Z,54.90
2023-05-15T12:41:35.528Z,55.89
2023-05-15T12:42:36.432Z,55.79
2023-05-15T12:43:37.421Z,55.72
2023-05-15T12:44:37.863Z,57.12
2023-05-15T12:45:38.785Z,55.42
2023-05-15T12:46:40.016Z,55.40
2023-05-15T12:47:40.799Z,53.30
2023-05-15T12:48:43.354Z,54.12
2023-05-15T12:49:41.816Z,54.62
2023-05-15T12:50:42.729Z,55.52
2023-05-15T12:51:43.642Z,55.74
2023-05-15T12:52:44.547Z,55.15
2023-05-15T12:53:45.458Z,54.85
2023-05-15T12:54:46.393Z,56.48
2023-05-15T12:55:53.328Z,56.17
2023-05-15T12:56:48.269Z,57.40
2023-05-15T13:34:25.327Z,50.40
2023-05-15T13:35:04.793Z,47.60
2023-05-15T13:36:26.792Z,49.10
2023-05-15T13:37:06.707Z,47.03
2023-05-15T13:38:09.447Z,47.15
2023-05-15T13:39:07.690Z,48.47
2023-05-15T13:40:08.608Z,47.69
2023-05-15T13:41:09.511Z,48.49
2023-05-15T13:42:10.400Z,50.17
2023-05-15T13:43:11.287Z,50.77
2023-05-15T13:44:12.187Z,49.55
2023-05-15T13:45:13.117Z,47.47
2023-05-15T13:46:14.057Z,47.69
2023-05-15T13:47:14.948Z,47.22
2023-05-15T13:48:15.877Z,49.14
2023-05-15T13:49:16.857Z,48.34
2023-05-15T13:50:17.771Z,49.54
2023-05-15T13:51:18.680Z,50.34
2023-05-15T13:52:19.600Z,49.14
2023-05-15T13:53:20.523Z,48.84
2023-05-15T13:54:21.452Z,48.46
2023-05-15T13:55:23.298Z,48.86
2023-05-15T13:56:22.947Z,48.36
2023-05-15T13:57:23.414Z,49.96
2023-05-15T13:58:24.329Z,51.07
2023-05-15T13:59:25.377Z,50.87
2023-05-15T14:00:25.932Z,51.94
2023-05-15T14:01:28.504Z,50.22
2023-05-15T14:02:27.464Z,48.82
2023-05-15T14:03:28.468Z,50.47
2023-05-15T14:04:29.090Z,49.67
2023-05-15T14:05:29.562Z,48.75
2023-05-15T14:06:30.279Z,48.25
2023-05-15T14:07:31.314Z,47.65
2023-05-15T14:08:31.967Z,48.25
2023-05-15T14:09:32.907Z,47.05
2023-05-15T14:10:33.852Z,47.75
2023-05-15T14:11:34.822Z,43.33
2023-05-15T14:12:36.422Z,41.96
2023-05-15T14:13:40.894Z,43.95
2023-05-15T14:14:37.356Z,43.45
2023-05-15T14:15:37.792Z,46.47
2023-05-15T14:16:38.751Z,46.09
2023-05-15T14:17:39.702Z,46.80
2023-05-15T14:45:28.150Z,44.85
2023-05-15T14:46:27.150Z,44.85
2023-05-15T14:47:27.546Z,44.75
2023-05-15T14:48:28.398Z,44.05
2023-05-15T14:49:29.332Z,42.76
2023-05-15T14:50:30.239Z,42.46
2023-05-15T14:51:31.283Z,42.35
2023-05-15T14:52:31.712Z,44.65
2023-05-15T14:53:32.744Z,45.63
2023-05-15T14:54:33.256Z,45.53
2023-05-15T14:55:33.683Z,44.33
2023-05-15T14:56:34.635Z,43.41
2023-05-15T14:57:35.752Z,44.41
2023-05-15T14:58:36.251Z,44.69
2023-05-15T14:59:37.506Z,42.32
2023-05-15T15:00:38.047Z,42.91
2023-05-15T15:01:38.454Z,42.13
2023-05-15T15:02:39.365Z,43.83
2023-05-15T15:03:40.364Z,44.23
2023-05-15T15:04:41.313Z,44.03
2023-05-15T15:05:42.266Z,44.75
2023-05-15T15:06:43.146Z,43.65
2023-05-15T15:07:44.035Z,45.27
2023-05-15T15:08:44.938Z,45.17
2023-05-15T15:09:45.842Z,46.00
2023-05-15T15:10:46.713Z,45.20
2023-05-15T15:11:47.653Z,46.12
2023-05-15T15:12:48.544Z,45.89
2023-05-15T15:13:49.507Z,47.02
2023-05-15T15:14:50.424Z,47.81
2023-05-15T15:15:51.718Z,47.24
2023-05-15T15:16:52.370Z,47.44
2023-05-15T15:17:52.945Z,48.26
2023-05-15T15:18:53.913Z,48.86
2023-05-15T15:19:54.332Z,46.76
2023-05-15T15:20:55.242Z,47.69
2023-05-15T15:21:56.247Z,48.79
2023-05-15T15:22:57.789Z,48.58
2023-05-15T15:23:57.710Z,47.99
2023-05-15T15:25:00.849Z,47.58
2023-05-15T15:25:59.481Z,47.78
2023-05-15T15:27:00.575Z,49.08
2023-05-15T15:28:01.166Z,48.36
2023-05-15T15:29:01.613Z,49.37
2023-05-15T15:30:02.149Z,48.16
2023-05-15T15:31:03.038Z,49.76
2023-05-15T15:32:04.023Z,49.66
2023-05-15T15:33:04.585Z,48.58
2023-05-15T15:34:05.910Z,48.58
2023-05-15T15:35:06.018Z,49.58
2023-05-15T15:36:06.658Z,49.89
2023-05-15T15:37:07.152Z,50.42
2023-05-15T15:38:07.700Z,52.62
2023-05-15T15:39:08.148Z,51.32
2023-05-15T15:40:09.116Z,51.89
2023-05-15T15:41:09.693Z,51.69
2023-05-15T15:42:10.600Z,50.99
2023-05-15T15:43:11.494Z,50.39
2023-05-15T15:44:12.382Z,49.61
2023-05-15T15:45:13.276Z,49.41
2023-05-15T15:46:14.272Z,50.13
2023-05-15T15:47:14.694Z,49.33
2023-05-15T15:48:15.696Z,50.06
2023-05-15T15:49:16.627Z,51.76
2023-05-15T15:50:17.380Z,53.75
2023-05-15T15:51:18.294Z,50.42
2023-05-15T15:52:19.638Z,50.11
2023-05-15T15:53:20.055Z,50.71
2023-05-15T15:54:21.011Z,49.71
2023-05-15T15:55:21.911Z,48.61
2023-05-15T15:56:22.833Z,47.61
2023-05-15T15:57:23.722Z,47.33
2023-05-15T15:58:24.617Z,46.35
2023-05-15T15:59:25.512Z,47.65
2023-05-15T16:00:28.238Z,48.88
2023-05-15T16:01:27.254Z,49.38
2023-05-15T16:02:28.199Z,50.59
2023-05-15T16:03:28.697Z,49.30
2023-05-15T16:04:29.674Z,50.71
2023-05-15T16:05:30.615Z,50.23
2023-05-15T16:06:31.532Z,51.24
2023-05-15T16:07:32.447Z,52.04
2023-05-15T16:08:33.330Z,52.64
2023-05-15T16:09:34.250Z,52.74
2023-05-15T16:10:35.168Z,52.34
2023-05-15T16:11:36.068Z,51.42
2023-05-15T16:12:36.983Z,51.92
2023-05-15T16:13:40.316Z,53.02
2023-05-15T16:14:38.862Z,52.82
2023-05-15T16:15:40.321Z,53.12
2023-05-15T16:16:40.659Z,53.32
2023-05-15T16:17:41.597Z,53.52
2023-05-15T16:18:42.096Z,51.21
2023-05-15T16:19:42.978Z,51.69
2023-05-15T16:20:43.948Z,52.72
2023-05-15T16:21:44.836Z,51.72
2023-05-15T16:22:45.727Z,51.42
2023-05-15T16:23:46.670Z,52.62
2023-05-15T16:24:47.624Z,52.82
2023-05-15T16:25:48.523Z,52.42
2023-05-15T16:26:49.435Z,52.34
2023-05-15T16:27:50.394Z,52.44
2023-05-15T16:28:50.881Z,52.01
2023-05-15T16:29:52.242Z,52.34
2023-05-15T16:30:53.147Z,52.84
2023-05-15T16:31:53.323Z,51.94
2023-05-15T16:32:53.763Z,52.74
2023-05-15T16:33:54.709Z,53.95
2023-05-15T16:34:55.611Z,53.75
2023-05-15T16:35:56.567Z,53.77
2023-05-15T16:36:57.456Z,53.27
2023-05-15T16:37:58.367Z,54.08
2023-05-15T16:38:59.320Z,53.67
2023-05-15T16:40:00.481Z,53.67
2023-05-15T16:41:00.889Z,53.67
2023-05-15T16:42:02.671Z,51.66
2023-05-15T16:43:02.603Z,52.89
2023-05-15T16:44:03.500Z,53.09
2023-05-15T16:45:04.409Z,53.40
2023-05-15T16:46:05.378Z,50.58
2023-05-15T16:47:06.290Z,52.31
2023-05-15T16:48:07.265Z,52.01
2023-05-15T16:49:08.675Z,53.32
2023-05-15T16:50:08.689Z,52.82
2023-05-15T16:51:09.583Z,52.92
2023-05-15T16:52:10.500Z,52.22
2023-05-15T16:53:11.468Z,53.32
2023-05-15T16:54:12.371Z,52.01
2023-05-15T16:55:13.451Z,52.22
2023-05-15T16:56:14.122Z,51.61
2023-05-15T16:57:14.573Z,52.11
2023-05-15T16:58:15.793Z,52.72
2023-05-15T16:59:16.506Z,51.81
2023-05-15T17:00:16.944Z,52.49
2023-05-15T17:01:17.910Z,53.20
2023-05-15T17:02:18.866Z,52.89
2023-05-15T17:03:19.820Z,53.20
2023-05-15T17:04:20.725Z,53.40
2023-05-15T17:05:21.637Z,53.90
2023-05-15T17:06:22.575Z,53.00
2023-05-15T17:07:23.628Z,53.00
2023-05-15T17:08:24.045Z,53.30
2023-05-15T17:09:24.946Z,53.70
2023-05-15T17:10:26.006Z,53.83
2023-05-15T17:11:26.456Z,54.33
2023-05-15T17:12:27.326Z,53.92
2023-05-15T17:13:28.217Z,55.16
2023-05-15T17:14:29.112Z,55.56
2023-05-15T17:15:30.019Z,56.37
2023-05-15T17:16:30.964Z,56.37
2023-05-15T17:17:31.893Z,56.67
2023-05-15T17:18:32.428Z,57.81
2023-05-15T17:19:32.838Z,57.81
2023-05-15T17:20:33.821Z,58.21
2023-05-15T17:21:34.732Z,58.14
2023-05-15T17:22:35.613Z,58.84
2023-05-15T17:23:36.517Z,59.77
2023-05-15T17:24:50.008Z,59.97
2023-05-15T17:25:39.228Z,60.41
2023-05-15T17:26:39.127Z,61.01
2023-05-15T17:27:40.026Z,61.95
2023-05-15T17:28:40.900Z,62.65
2023-05-15T17:29:41.845Z,62.55
2023-05-15T17:30:42.800Z,63.06
2023-05-15T17:31:43.728Z,63.46
2023-05-15T17:32:44.735Z,64.27
2023-05-15T17:33:47.509Z,64.30
2023-05-15T17:34:46.621Z,65.51
2023-05-15T17:35:47.481Z,65.51
2023-05-15T17:36:48.361Z,66.42
2023-05-15T17:37:49.252Z,66.82
2023-05-15T17:38:50.169Z,67.23
2023-05-15T17:39:51.115Z,67.33
2023-05-15T17:40:52.007Z,67.86
2023-05-15T17:41:52.891Z,67.83
2023-05-15T17:42:54.740Z,67.86
2023-05-15T17:43:55.709Z,67.46
2023-05-15T17:44:55.670Z,67.76
2023-05-15T17:45:56.666Z,67.97
2023-05-15T17:46:57.113Z,68.07
2023-05-15T17:47:58.103Z,68.67
2023-05-15T17:48:58.980Z,68.77
2023-05-15T17:49:59.903Z,68.80
2023-05-15T17:51:00.917Z,69.01
2023-05-15T17:52:01.370Z,69.51
2023-05-15T17:53:02.260Z,69.71
2023-05-15T17:54:03.225Z,69.92
2023-05-15T17:55:04.120Z,69.62
2023-05-15T17:56:05.019Z,70.12
2023-05-15T17:57:05.894Z,70.46
2023-05-15T17:58:06.797Z,70.62
2023-05-15T17:59:07.743Z,71.13
2023-05-15T18:00:08.647Z,70.76
2023-05-15T18:01:09.567Z,71.06
2023-05-15T18:02:10.455Z,71.37
2023-05-15T18:03:11.478Z,71.47
2023-05-15T18:04:11.945Z,71.06
2023-05-15T18:05:12.817Z,70.76
2023-05-15T18:06:13.692Z,70.93
2023-05-15T18:07:14.593Z,70.02
2023-05-15T18:08:15.534Z,70.22
2023-05-15T18:09:16.616Z,70.02
2023-05-15T18:10:17.029Z,69.92